sensor_id;sensor_type;location;lat;lon;timestamp;temperature;humidity
11005;DHT22;5555;59.622;16.556;2023-02-22T00:00:49;-1.90;99.90
11005;DHT22;5555;59.622;16.556;2023-02-22T00:03:24;-1.90;99.90
11005;DHT22;5555;59.622;16.556;2023-02-22T00:05:58;-1.90;99.90
11005;DHT22;5555;59.622;16.556;2023-02-22T00:08:29;-2.00;99.90
11005;DHT22;5555;59.622;16.556;2023-02-22T00:11:01;-2.00;99.90
11005;DHT22;5555;59.622;16.556;2023-02-22T00:13:28;-2.00;99.90
11005;DHT22;5555;59.622;16.556;2023-02-22T00:15:57;-2.00;99.90
11005;DHT22;5555;59.622;16.556;2023-02-22T00:18:24;-2.00;99.90
11005;DHT22;5555;59.622;16.556;2023-02-22T00:20:52;-2.00;99.90
11005;DHT22;5555;59.622;16.556;2023-02-22T00:23:21;-1.90;99.90
11005;DHT22;5555;59.622;16.556;2023-02-22T00:25:50;-2.00;99.90
11005;DHT22;5555;59.622;16.556;2023-02-22T00:28:19;-2.00;99.90
11005;DHT22;5555;59.622;16.556;2023-02-22T00:30:45;-2.00;99.90
11005;DHT22;5555;59.622;16.556;2023-02-22T00:33:13;-2.00;99.90
11005;DHT22;5555;59.622;16.556;2023-02-22T00:35:40;-2.00;99.90
11005;DHT22;5555;59.622;16.556;2023-02-22T00:38:06;-2.00;99.90
11005;DHT22;5555;59.622;16.556;2023-02-22T00:40:33;-1.90;99.90
11005;DHT22;5555;59.622;16.556;2023-02-22T00:43:04;-1.90;99.90
11005;DHT22;5555;59.622;16.556;2023-02-22T00:45:31;-1.90;99.90
11005;DHT22;5555;59.622;16.556;2023-02-22T00:47:58;-1.90;99.90
11005;DHT22;5555;59.622;16.556;2023-02-22T00:50:26;-1.90;99.90
11005;DHT22;5555;59.622;16.556;2023-02-22T00:52:52;-1.90;99.90
11005;DHT22;5555;59.622;16.556;2023-02-22T00:55:21;-1.90;99.90
11005;DHT22;5555;59.622;16.556;2023-02-22T00:57:47;-1.90;99.90
11005;DHT22;5555;59.622;16.556;2023-02-22T01:00:22;-1.90;99.90
11005;DHT22;5555;59.622;16.556;2023-02-22T01:02:48;-1.90;99.90
11005;DHT22;5555;59.622;16.556;2023-02-22T01:05:17;-1.90;99.90
11005;DHT22;5555;59.622;16.556;2023-02-22T01:07:43;-1.90;99.90
11005;DHT22;5555;59.622;16.556;2023-02-22T01:10:10;-1.90;99.90
11005;DHT22;5555;59.622;16.556;2023-02-22T01:12:36;-1.90;99.90
11005;DHT22;5555;59.622;16.556;2023-02-22T01:15:03;-1.90;99.90
11005;DHT22;5555;59.622;16.556;2023-02-22T01:17:29;-1.90;99.90
11005;DHT22;5555;59.622;16.556;2023-02-22T01:19:55;-1.90;99.90
11005;DHT22;5555;59.622;16.556;2023-02-22T01:22:21;-1.90;99.90
11005;DHT22;5555;59.622;16.556;2023-02-22T01:24:48;-1.90;99.90
11005;DHT22;5555;59.622;16.556;2023-02-22T01:27:14;-1.90;99.90
11005;DHT22;5555;59.622;16.556;2023-02-22T01:29:40;-1.90;99.90
11005;DHT22;5555;59.622;16.556;2023-02-22T01:32:06;-2.00;99.90
11005;DHT22;5555;59.622;16.556;2023-02-22T01:34:32;-1.90;99.90
11005;DHT22;5555;59.622;16.556;2023-02-22T01:36:59;-1.90;99.90
11005;DHT22;5555;59.622;16.556;2023-02-22T01:39:26;-1.90;99.90
11005;DHT22;5555;59.622;16.556;2023-02-22T01:41:51;-1.90;99.90
11005;DHT22;5555;59.622;16.556;2023-02-22T01:44:35;-1.90;99.90
11005;DHT22;5555;59.622;16.556;2023-02-22T01:47:03;-1.90;99.90
11005;DHT22;5555;59.622;16.556;2023-02-22T01:49:42;-2.00;99.90
11005;DHT22;5555;59.622;16.556;2023-02-22T01:52:12;-2.00;99.90
11005;DHT22;5555;59.622;16.556;2023-02-22T01:54:49;-1.90;99.90
11005;DHT22;5555;59.622;16.556;2023-02-22T01:57:20;-1.90;99.90
11005;DHT22;5555;59.622;16.556;2023-02-22T01:59:50;-2.00;99.90
11005;DHT22;5555;59.622;16.556;2023-02-22T02:02:17;-2.00;99.90
11005;DHT22;5555;59.622;16.556;2023-02-22T02:04:44;-1.90;99.90
11005;DHT22;5555;59.622;16.556;2023-02-22T02:07:12;-2.00;99.90
11005;DHT22;5555;59.622;16.556;2023-02-22T02:12:14;-2.10;99.90
11005;DHT22;5555;59.622;16.556;2023-02-22T02:14:41;-2.10;99.90
11005;DHT22;5555;59.622;16.556;2023-02-22T02:17:15;-2.20;99.90
11005;DHT22;5555;59.622;16.556;2023-02-22T02:22:55;-2.30;99.90
11005;DHT22;5555;59.622;16.556;2023-02-22T02:34:04;-2.40;99.90
11005;DHT22;5555;59.622;16.556;2023-02-22T02:39:40;-2.40;99.90
11005;DHT22;5555;59.622;16.556;2023-02-22T02:42:13;-2.40;99.90
11005;DHT22;5555;59.622;16.556;2023-02-22T02:44:59;-2.40;99.90
11005;DHT22;5555;59.622;16.556;2023-02-22T02:47:29;-2.40;99.90
11005;DHT22;5555;59.622;16.556;2023-02-22T02:50:02;-2.40;99.90
11005;DHT22;5555;59.622;16.556;2023-02-22T02:52:30;-2.40;99.90
11005;DHT22;5555;59.622;16.556;2023-02-22T02:54:56;-2.40;99.90
11005;DHT22;5555;59.622;16.556;2023-02-22T02:57:22;-2.40;99.90
11005;DHT22;5555;59.622;16.556;2023-02-22T02:59:49;-2.40;99.90
11005;DHT22;5555;59.622;16.556;2023-02-22T03:02:23;-2.40;99.90
11005;DHT22;5555;59.622;16.556;2023-02-22T03:05:03;-2.40;99.90
11005;DHT22;5555;59.622;16.556;2023-02-22T03:08:00;-2.40;99.90
11005;DHT22;5555;59.622;16.556;2023-02-22T03:18:41;-2.50;99.90
11005;DHT22;5555;59.622;16.556;2023-02-22T03:21:32;-2.50;99.90
11005;DHT22;5555;59.622;16.556;2023-02-22T03:29:02;-2.50;99.90
11005;DHT22;5555;59.622;16.556;2023-02-22T03:31:33;-2.60;99.90
11005;DHT22;5555;59.622;16.556;2023-02-22T03:34:06;-2.50;99.90
11005;DHT22;5555;59.622;16.556;2023-02-22T03:36:58;-2.50;99.90
11005;DHT22;5555;59.622;16.556;2023-02-22T03:39:20;-2.50;99.90
11005;DHT22;5555;59.622;16.556;2023-02-22T03:41:52;-2.50;99.90
11005;DHT22;5555;59.622;16.556;2023-02-22T03:44:21;-2.50;99.90
11005;DHT22;5555;59.622;16.556;2023-02-22T03:46:51;-2.50;99.90
11005;DHT22;5555;59.622;16.556;2023-02-22T03:49:50;-2.50;99.90
11005;DHT22;5555;59.622;16.556;2023-02-22T03:52:16;-2.50;99.90
11005;DHT22;5555;59.622;16.556;2023-02-22T03:54:42;-2.60;99.90
11005;DHT22;5555;59.622;16.556;2023-02-22T03:57:17;-2.60;99.90
11005;DHT22;5555;59.622;16.556;2023-02-22T03:59:46;-2.60;99.90
11005;DHT22;5555;59.622;16.556;2023-02-22T04:02:12;-2.60;99.90
11005;DHT22;5555;59.622;16.556;2023-02-22T04:04:37;-2.50;99.90
11005;DHT22;5555;59.622;16.556;2023-02-22T04:07:03;-2.60;99.90
11005;DHT22;5555;59.622;16.556;2023-02-22T04:09:29;-2.50;99.90
11005;DHT22;5555;59.622;16.556;2023-02-22T04:11:55;-2.60;99.90
11005;DHT22;5555;59.622;16.556;2023-02-22T04:14:20;-2.60;99.90
11005;DHT22;5555;59.622;16.556;2023-02-22T04:16:46;-2.60;99.90
11005;DHT22;5555;59.622;16.556;2023-02-22T04:19:11;-2.60;99.90
11005;DHT22;5555;59.622;16.556;2023-02-22T04:21:37;-2.60;99.90
11005;DHT22;5555;59.622;16.556;2023-02-22T04:24:03;-2.60;99.90
11005;DHT22;5555;59.622;16.556;2023-02-22T04:26:29;-2.60;99.90
11005;DHT22;5555;59.622;16.556;2023-02-22T04:28:54;-2.60;99.90
11005;DHT22;5555;59.622;16.556;2023-02-22T04:31:20;-2.60;99.90
11005;DHT22;5555;59.622;16.556;2023-02-22T04:33:46;-2.60;99.90
11005;DHT22;5555;59.622;16.556;2023-02-22T04:36:11;-2.60;99.90
11005;DHT22;5555;59.622;16.556;2023-02-22T04:38:40;-2.70;99.90
11005;DHT22;5555;59.622;16.556;2023-02-22T04:41:06;-2.60;99.90
11005;DHT22;5555;59.622;16.556;2023-02-22T04:43:31;-2.70;99.90
11005;DHT22;5555;59.622;16.556;2023-02-22T04:45:57;-2.70;99.90
11005;DHT22;5555;59.622;16.556;2023-02-22T04:48:23;-2.70;99.90
11005;DHT22;5555;59.622;16.556;2023-02-22T04:50:48;-2.70;99.90
11005;DHT22;5555;59.622;16.556;2023-02-22T04:53:15;-2.70;99.90
11005;DHT22;5555;59.622;16.556;2023-02-22T04:55:41;-2.70;99.90
11005;DHT22;5555;59.622;16.556;2023-02-22T04:58:06;-2.80;99.90
11005;DHT22;5555;59.622;16.556;2023-02-22T05:00:32;-2.80;99.90
11005;DHT22;5555;59.622;16.556;2023-02-22T05:02:58;-2.80;99.90
11005;DHT22;5555;59.622;16.556;2023-02-22T05:05:23;-2.80;99.90
11005;DHT22;5555;59.622;16.556;2023-02-22T05:07:49;-2.80;99.90
11005;DHT22;5555;59.622;16.556;2023-02-22T05:10:15;-2.80;99.90
11005;DHT22;5555;59.622;16.556;2023-02-22T05:12:41;-2.80;99.90
11005;DHT22;5555;59.622;16.556;2023-02-22T05:15:07;-2.80;99.90
11005;DHT22;5555;59.622;16.556;2023-02-22T05:17:34;-2.90;99.90
11005;DHT22;5555;59.622;16.556;2023-02-22T05:20:00;-2.90;99.90
11005;DHT22;5555;59.622;16.556;2023-02-22T05:22:26;-2.90;99.90
11005;DHT22;5555;59.622;16.556;2023-02-22T05:24:51;-2.90;99.90
11005;DHT22;5555;59.622;16.556;2023-02-22T05:27:17;-2.90;99.90
11005;DHT22;5555;59.622;16.556;2023-02-22T05:29:44;-2.90;99.90
11005;DHT22;5555;59.622;16.556;2023-02-22T05:32:09;-2.90;99.90
11005;DHT22;5555;59.622;16.556;2023-02-22T05:34:36;-2.90;99.90
11005;DHT22;5555;59.622;16.556;2023-02-22T05:37:02;-2.80;99.90
11005;DHT22;5555;59.622;16.556;2023-02-22T05:39:29;-2.80;99.90
11005;DHT22;5555;59.622;16.556;2023-02-22T05:41:54;-2.90;99.90
11005;DHT22;5555;59.622;16.556;2023-02-22T05:44:20;-2.90;99.90
11005;DHT22;5555;59.622;16.556;2023-02-22T05:46:46;-2.90;99.90
11005;DHT22;5555;59.622;16.556;2023-02-22T05:49:11;-2.90;99.90
11005;DHT22;5555;59.622;16.556;2023-02-22T05:51:37;-2.80;99.90
11005;DHT22;5555;59.622;16.556;2023-02-22T05:54:02;-2.80;99.90
11005;DHT22;5555;59.622;16.556;2023-02-22T05:56:29;-2.80;99.90
11005;DHT22;5555;59.622;16.556;2023-02-22T05:58:55;-2.80;99.90
11005;DHT22;5555;59.622;16.556;2023-02-22T06:01:22;-2.70;99.90
11005;DHT22;5555;59.622;16.556;2023-02-22T06:03:48;-2.70;99.90
11005;DHT22;5555;59.622;16.556;2023-02-22T06:06:15;-2.70;99.90
11005;DHT22;5555;59.622;16.556;2023-02-22T06:08:41;-2.70;99.90
11005;DHT22;5555;59.622;16.556;2023-02-22T06:11:07;-2.70;99.90
11005;DHT22;5555;59.622;16.556;2023-02-22T06:13:36;-2.60;99.90
11005;DHT22;5555;59.622;16.556;2023-02-22T06:16:02;-2.60;99.90
11005;DHT22;5555;59.622;16.556;2023-02-22T06:18:28;-2.60;99.90
11005;DHT22;5555;59.622;16.556;2023-02-22T06:20:56;-2.60;99.90
11005;DHT22;5555;59.622;16.556;2023-02-22T06:23:21;-2.60;99.90
11005;DHT22;5555;59.622;16.556;2023-02-22T06:25:47;-2.60;99.90
11005;DHT22;5555;59.622;16.556;2023-02-22T06:28:13;-2.60;99.90
11005;DHT22;5555;59.622;16.556;2023-02-22T06:30:40;-2.60;99.90
11005;DHT22;5555;59.622;16.556;2023-02-22T06:33:07;-2.50;99.90
11005;DHT22;5555;59.622;16.556;2023-02-22T06:35:33;-2.50;99.90
11005;DHT22;5555;59.622;16.556;2023-02-22T06:37:59;-2.40;99.90
11005;DHT22;5555;59.622;16.556;2023-02-22T06:40:25;-2.40;99.90
11005;DHT22;5555;59.622;16.556;2023-02-22T06:42:55;-2.40;99.90
11005;DHT22;5555;59.622;16.556;2023-02-22T06:45:21;-2.30;99.90
11005;DHT22;5555;59.622;16.556;2023-02-22T06:47:47;-2.30;99.90
11005;DHT22;5555;59.622;16.556;2023-02-22T06:50:27;-2.20;99.90
11005;DHT22;5555;59.622;16.556;2023-02-22T06:52:53;-2.20;99.90
11005;DHT22;5555;59.622;16.556;2023-02-22T06:55:27;-2.10;99.90
11005;DHT22;5555;59.622;16.556;2023-02-22T06:57:52;-2.10;99.90
11005;DHT22;5555;59.622;16.556;2023-02-22T07:00:20;-2.10;99.90
11005;DHT22;5555;59.622;16.556;2023-02-22T07:02:47;-2.10;99.90
11005;DHT22;5555;59.622;16.556;2023-02-22T07:05:14;-2.00;99.90
11005;DHT22;5555;59.622;16.556;2023-02-22T07:07:40;-2.10;99.90
11005;DHT22;5555;59.622;16.556;2023-02-22T07:10:08;-2.10;99.90
11005;DHT22;5555;59.622;16.556;2023-02-22T07:12:34;-2.00;99.90
11005;DHT22;5555;59.622;16.556;2023-02-22T07:15:00;-2.00;99.90
11005;DHT22;5555;59.622;16.556;2023-02-22T07:17:26;-2.00;99.90
11005;DHT22;5555;59.622;16.556;2023-02-22T07:19:51;-2.00;99.90
11005;DHT22;5555;59.622;16.556;2023-02-22T07:22:17;-1.90;99.90
11005;DHT22;5555;59.622;16.556;2023-02-22T07:24:42;-1.90;99.90
11005;DHT22;5555;59.622;16.556;2023-02-22T07:27:08;-1.90;99.90
11005;DHT22;5555;59.622;16.556;2023-02-22T07:29:34;-1.80;99.90
11005;DHT22;5555;59.622;16.556;2023-02-22T07:32:01;-1.80;99.90
11005;DHT22;5555;59.622;16.556;2023-02-22T07:34:27;-1.70;99.90
11005;DHT22;5555;59.622;16.556;2023-02-22T07:36:52;-1.70;99.90
11005;DHT22;5555;59.622;16.556;2023-02-22T07:39:18;-1.70;99.90
11005;DHT22;5555;59.622;16.556;2023-02-22T07:41:44;-1.70;99.90
11005;DHT22;5555;59.622;16.556;2023-02-22T07:44:09;-1.70;99.90
11005;DHT22;5555;59.622;16.556;2023-02-22T07:46:35;-1.70;99.90
11005;DHT22;5555;59.622;16.556;2023-02-22T07:49:00;-1.70;99.90
11005;DHT22;5555;59.622;16.556;2023-02-22T07:51:26;-1.70;99.90
11005;DHT22;5555;59.622;16.556;2023-02-22T07:53:52;-1.70;99.90
11005;DHT22;5555;59.622;16.556;2023-02-22T07:56:17;-1.60;99.90
11005;DHT22;5555;59.622;16.556;2023-02-22T07:58:43;-1.50;99.90
11005;DHT22;5555;59.622;16.556;2023-02-22T08:01:08;-1.40;99.90
11005;DHT22;5555;59.622;16.556;2023-02-22T08:03:35;-1.40;99.90
11005;DHT22;5555;59.622;16.556;2023-02-22T08:06:03;-1.30;99.90
11005;DHT22;5555;59.622;16.556;2023-02-22T08:08:29;-1.30;99.90
11005;DHT22;5555;59.622;16.556;2023-02-22T08:10:55;-1.40;99.90
11005;DHT22;5555;59.622;16.556;2023-02-22T08:13:21;-1.40;99.90
11005;DHT22;5555;59.622;16.556;2023-02-22T08:15:50;-1.40;99.90
11005;DHT22;5555;59.622;16.556;2023-02-22T08:18:17;-1.30;99.90
11005;DHT22;5555;59.622;16.556;2023-02-22T08:20:45;-1.20;99.90
11005;DHT22;5555;59.622;16.556;2023-02-22T08:23:12;-1.20;99.90
11005;DHT22;5555;59.622;16.556;2023-02-22T08:25:38;-1.20;99.90
11005;DHT22;5555;59.622;16.556;2023-02-22T08:28:15;-1.20;99.90
11005;DHT22;5555;59.622;16.556;2023-02-22T08:30:42;-1.10;99.90
11005;DHT22;5555;59.622;16.556;2023-02-22T08:33:09;-0.90;99.90
11005;DHT22;5555;59.622;16.556;2023-02-22T08:35:35;-0.70;99.90
11005;DHT22;5555;59.622;16.556;2023-02-22T08:38:04;-0.70;99.90
11005;DHT22;5555;59.622;16.556;2023-02-22T08:40:32;-0.60;99.90
11005;DHT22;5555;59.622;16.556;2023-02-22T08:42:58;-0.70;99.90
11005;DHT22;5555;59.622;16.556;2023-02-22T08:45:24;-0.80;99.90
11005;DHT22;5555;59.622;16.556;2023-02-22T08:47:50;-0.80;99.90
11005;DHT22;5555;59.622;16.556;2023-02-22T08:50:18;-0.70;99.90
11005;DHT22;5555;59.622;16.556;2023-02-22T08:52:44;-0.80;99.90
11005;DHT22;5555;59.622;16.556;2023-02-22T08:55:10;-0.70;99.90
11005;DHT22;5555;59.622;16.556;2023-02-22T08:57:35;-0.50;99.90
11005;DHT22;5555;59.622;16.556;2023-02-22T09:00:03;-0.30;99.90
11005;DHT22;5555;59.622;16.556;2023-02-22T09:02:29;-0.30;99.90
11005;DHT22;5555;59.622;16.556;2023-02-22T09:04:54;-0.20;99.90
11005;DHT22;5555;59.622;16.556;2023-02-22T09:07:20;0.20;99.90
11005;DHT22;5555;59.622;16.556;2023-02-22T09:09:46;0.00;99.90
11005;DHT22;5555;59.622;16.556;2023-02-22T09:12:12;0.30;99.90
11005;DHT22;5555;59.622;16.556;2023-02-22T09:14:37;0.10;99.90
11005;DHT22;5555;59.622;16.556;2023-02-22T09:17:03;0.30;99.90
11005;DHT22;5555;59.622;16.556;2023-02-22T09:19:28;0.40;99.90
11005;DHT22;5555;59.622;16.556;2023-02-22T09:21:56;0.30;99.90
11005;DHT22;5555;59.622;16.556;2023-02-22T09:24:22;0.50;99.90
11005;DHT22;5555;59.622;16.556;2023-02-22T09:26:48;1.00;99.90
11005;DHT22;5555;59.622;16.556;2023-02-22T09:29:19;0.90;99.90
11005;DHT22;5555;59.622;16.556;2023-02-22T09:31:47;0.70;99.90
11005;DHT22;5555;59.622;16.556;2023-02-22T09:34:14;0.90;99.90
11005;DHT22;5555;59.622;16.556;2023-02-22T09:36:41;0.80;99.90
11005;DHT22;5555;59.622;16.556;2023-02-22T09:39:07;0.80;99.90
11005;DHT22;5555;59.622;16.556;2023-02-22T09:41:50;0.60;99.90
11005;DHT22;5555;59.622;16.556;2023-02-22T09:46:50;0.70;99.90
11005;DHT22;5555;59.622;16.556;2023-02-22T09:49:40;1.00;99.90
11005;DHT22;5555;59.622;16.556;2023-02-22T09:52:21;1.00;99.90
11005;DHT22;5555;59.622;16.556;2023-02-22T09:55:11;1.30;99.90
11005;DHT22;5555;59.622;16.556;2023-02-22T09:57:42;1.60;99.90
11005;DHT22;5555;59.622;16.556;2023-02-22T10:05:36;1.80;99.90
11005;DHT22;5555;59.622;16.556;2023-02-22T10:08:09;1.40;99.90
11005;DHT22;5555;59.622;16.556;2023-02-22T10:10:39;1.10;99.90
11005;DHT22;5555;59.622;16.556;2023-02-22T10:18:43;1.60;99.90
11005;DHT22;5555;59.622;16.556;2023-02-22T10:24:21;1.70;99.90
11005;DHT22;5555;59.622;16.556;2023-02-22T10:26:51;1.70;99.90
11005;DHT22;5555;59.622;16.556;2023-02-22T10:29:38;1.50;99.90
11005;DHT22;5555;59.622;16.556;2023-02-22T10:32:07;1.40;99.90
11005;DHT22;5555;59.622;16.556;2023-02-22T10:34:47;1.80;99.90
11005;DHT22;5555;59.622;16.556;2023-02-22T10:37:38;1.60;99.90
11005;DHT22;5555;59.622;16.556;2023-02-22T10:40:20;1.60;99.90
11005;DHT22;5555;59.622;16.556;2023-02-22T10:42:48;1.70;99.90
11005;DHT22;5555;59.622;16.556;2023-02-22T10:45:27;1.60;99.90
11005;DHT22;5555;59.622;16.556;2023-02-22T10:47:55;1.50;99.90
11005;DHT22;5555;59.622;16.556;2023-02-22T10:50:25;1.70;99.90
11005;DHT22;5555;59.622;16.556;2023-02-22T10:52:52;1.40;99.90
11005;DHT22;5555;59.622;16.556;2023-02-22T10:55:19;1.70;99.90
11005;DHT22;5555;59.622;16.556;2023-02-22T10:57:46;2.30;99.90
11005;DHT22;5555;59.622;16.556;2023-02-22T11:00:43;2.70;99.90
11005;DHT22;5555;59.622;16.556;2023-02-22T11:03:20;2.80;99.90
11005;DHT22;5555;59.622;16.556;2023-02-22T11:05:47;2.80;99.90
11005;DHT22;5555;59.622;16.556;2023-02-22T11:08:29;3.30;99.90
11005;DHT22;5555;59.622;16.556;2023-02-22T11:11:01;3.10;99.90
11005;DHT22;5555;59.622;16.556;2023-02-22T11:13:38;3.60;99.90
11005;DHT22;5555;59.622;16.556;2023-02-22T11:16:29;3.70;99.90
11005;DHT22;5555;59.622;16.556;2023-02-22T11:21:42;3.40;99.90
11005;DHT22;5555;59.622;16.556;2023-02-22T11:24:11;3.60;99.90
11005;DHT22;5555;59.622;16.556;2023-02-22T11:26:48;3.30;99.90
11005;DHT22;5555;59.622;16.556;2023-02-22T11:29:25;3.40;99.90
11005;DHT22;5555;59.622;16.556;2023-02-22T11:31:51;3.10;99.90
11005;DHT22;5555;59.622;16.556;2023-02-22T11:34:31;3.20;99.90
11005;DHT22;5555;59.622;16.556;2023-02-22T11:37:26;3.20;99.90
11005;DHT22;5555;59.622;16.556;2023-02-22T11:40:09;2.90;99.90
11005;DHT22;5555;59.622;16.556;2023-02-22T11:42:36;3.60;99.90
11005;DHT22;5555;59.622;16.556;2023-02-22T11:45:13;3.70;99.90
11005;DHT22;5555;59.622;16.556;2023-02-22T11:47:53;3.50;99.90
11005;DHT22;5555;59.622;16.556;2023-02-22T11:53:50;4.00;99.90
11005;DHT22;5555;59.622;16.556;2023-02-22T11:56:42;4.00;99.90
11005;DHT22;5555;59.622;16.556;2023-02-22T11:59:40;4.20;99.90
11005;DHT22;5555;59.622;16.556;2023-02-22T12:07:43;3.60;99.90
11005;DHT22;5555;59.622;16.556;2023-02-22T12:13:24;3.30;99.90
11005;DHT22;5555;59.622;16.556;2023-02-22T12:16:04;3.50;99.90
11005;DHT22;5555;59.622;16.556;2023-02-22T12:21:28;3.90;99.90
11005;DHT22;5555;59.622;16.556;2023-02-22T12:24:12;3.70;99.90
11005;DHT22;5555;59.622;16.556;2023-02-22T12:29:25;3.10;99.90
11005;DHT22;5555;59.622;16.556;2023-02-22T12:31:59;3.60;99.90
11005;DHT22;5555;59.622;16.556;2023-02-22T12:34:33;4.10;99.90
11005;DHT22;5555;59.622;16.556;2023-02-22T12:43:01;4.30;99.90
11005;DHT22;5555;59.622;16.556;2023-02-22T12:45:52;4.20;99.90
11005;DHT22;5555;59.622;16.556;2023-02-22T12:50:48;4.80;99.90
11005;DHT22;5555;59.622;16.556;2023-02-22T12:53:34;4.70;99.90
11005;DHT22;5555;59.622;16.556;2023-02-22T12:59:05;4.60;99.90
11005;DHT22;5555;59.622;16.556;2023-02-22T13:01:39;4.80;99.90
11005;DHT22;5555;59.622;16.556;2023-02-22T13:04:05;4.60;99.90
11005;DHT22;5555;59.622;16.556;2023-02-22T13:07:08;4.30;99.90
11005;DHT22;5555;59.622;16.556;2023-02-22T13:12:37;3.80;99.90
11005;DHT22;5555;59.622;16.556;2023-02-22T13:15:27;3.70;99.90
11005;DHT22;5555;59.622;16.556;2023-02-22T13:18:08;3.40;99.90
11005;DHT22;5555;59.622;16.556;2023-02-22T13:20:53;3.20;99.90
11005;DHT22;5555;59.622;16.556;2023-02-22T13:23:53;3.10;99.90
11005;DHT22;5555;59.622;16.556;2023-02-22T13:26:33;2.80;99.90
11005;DHT22;5555;59.622;16.556;2023-02-22T13:29:12;2.50;99.90
11005;DHT22;5555;59.622;16.556;2023-02-22T13:45:19;2.10;99.90
11005;DHT22;5555;59.622;16.556;2023-02-22T13:51:00;1.90;99.90
11005;DHT22;5555;59.622;16.556;2023-02-22T13:53:32;1.80;99.90
11005;DHT22;5555;59.622;16.556;2023-02-22T13:56:02;1.70;99.90
11005;DHT22;5555;59.622;16.556;2023-02-22T13:58:27;1.70;99.90
11005;DHT22;5555;59.622;16.556;2023-02-22T14:00:57;1.60;99.90
11005;DHT22;5555;59.622;16.556;2023-02-22T14:03:36;1.20;99.90
11005;DHT22;5555;59.622;16.556;2023-02-22T14:06:06;1.40;99.90
11005;DHT22;5555;59.622;16.556;2023-02-22T14:11:03;1.70;99.90
11005;DHT22;5555;59.622;16.556;2023-02-22T14:14:08;1.80;99.90
11005;DHT22;5555;59.622;16.556;2023-02-22T14:16:34;1.50;99.90
11005;DHT22;5555;59.622;16.556;2023-02-22T14:19:20;1.30;99.90
11005;DHT22;5555;59.622;16.556;2023-02-22T14:22:03;1.20;99.90
11005;DHT22;5555;59.622;16.556;2023-02-22T14:24:44;1.10;99.90
11005;DHT22;5555;59.622;16.556;2023-02-22T14:27:13;0.90;99.90
11005;DHT22;5555;59.622;16.556;2023-02-22T14:29:57;0.90;99.90
11005;DHT22;5555;59.622;16.556;2023-02-22T14:32:33;0.80;99.90
11005;DHT22;5555;59.622;16.556;2023-02-22T14:35:19;0.60;99.90
11005;DHT22;5555;59.622;16.556;2023-02-22T14:37:54;0.50;99.90
11005;DHT22;5555;59.622;16.556;2023-02-22T14:40:30;0.30;99.90
11005;DHT22;5555;59.622;16.556;2023-02-22T14:43:19;0.20;99.90
11005;DHT22;5555;59.622;16.556;2023-02-22T14:45:52;0.30;99.90
11005;DHT22;5555;59.622;16.556;2023-02-22T14:48:39;0.30;99.90
11005;DHT22;5555;59.622;16.556;2023-02-22T14:53:48;0.40;99.90
11005;DHT22;5555;59.622;16.556;2023-02-22T14:56:22;0.10;99.90
11005;DHT22;5555;59.622;16.556;2023-02-22T14:58:55;0.20;99.90
11005;DHT22;5555;59.622;16.556;2023-02-22T15:01:31;0.10;99.90
11005;DHT22;5555;59.622;16.556;2023-02-22T15:04:27;0.00;99.90
11005;DHT22;5555;59.622;16.556;2023-02-22T15:06:56;0.00;99.90
11005;DHT22;5555;59.622;16.556;2023-02-22T15:09:24;0.00;99.90
11005;DHT22;5555;59.622;16.556;2023-02-22T15:14:31;0.00;99.90
11005;DHT22;5555;59.622;16.556;2023-02-22T15:17:13;-0.10;99.90
11005;DHT22;5555;59.622;16.556;2023-02-22T15:19:41;-0.20;99.90
11005;DHT22;5555;59.622;16.556;2023-02-22T15:22:24;-0.20;99.90
11005;DHT22;5555;59.622;16.556;2023-02-22T15:25:03;-0.30;99.90
11005;DHT22;5555;59.622;16.556;2023-02-22T15:27:29;-0.40;99.90
11005;DHT22;5555;59.622;16.556;2023-02-22T15:30:15;-0.40;99.90
11005;DHT22;5555;59.622;16.556;2023-02-22T15:32:42;-0.40;99.90
11005;DHT22;5555;59.622;16.556;2023-02-22T15:35:17;-0.50;99.90
11005;DHT22;5555;59.622;16.556;2023-02-22T15:37:45;-0.50;99.90
11005;DHT22;5555;59.622;16.556;2023-02-22T15:40:15;-0.60;99.90
11005;DHT22;5555;59.622;16.556;2023-02-22T15:42:43;-0.60;99.90
11005;DHT22;5555;59.622;16.556;2023-02-22T15:45:15;-0.60;99.90
11005;DHT22;5555;59.622;16.556;2023-02-22T15:47:41;-0.60;99.90
11005;DHT22;5555;59.622;16.556;2023-02-22T15:50:29;-0.70;99.90
11005;DHT22;5555;59.622;16.556;2023-02-22T15:53:31;-0.70;99.90
11005;DHT22;5555;59.622;16.556;2023-02-22T15:55:57;-0.80;99.90
11005;DHT22;5555;59.622;16.556;2023-02-22T15:58:26;-0.80;99.90
11005;DHT22;5555;59.622;16.556;2023-02-22T16:01:05;-0.80;99.90
11005;DHT22;5555;59.622;16.556;2023-02-22T16:06:10;-0.90;99.90
11005;DHT22;5555;59.622;16.556;2023-02-22T16:08:43;-0.90;99.90
11005;DHT22;5555;59.622;16.556;2023-02-22T16:11:34;-0.90;99.90
11005;DHT22;5555;59.622;16.556;2023-02-22T16:14:05;-1.00;99.90
11005;DHT22;5555;59.622;16.556;2023-02-22T16:16:33;-1.00;99.90
11005;DHT22;5555;59.622;16.556;2023-02-22T16:19:26;-1.00;99.90
11005;DHT22;5555;59.622;16.556;2023-02-22T16:21:54;-1.00;99.90
11005;DHT22;5555;59.622;16.556;2023-02-22T16:24:32;-1.10;99.90
11005;DHT22;5555;59.622;16.556;2023-02-22T16:29:39;-1.10;99.90
11005;DHT22;5555;59.622;16.556;2023-02-22T16:32:05;-1.20;99.90
11005;DHT22;5555;59.622;16.556;2023-02-22T16:34:31;-1.30;99.90
11005;DHT22;5555;59.622;16.556;2023-02-22T16:36:57;-1.30;99.90
11005;DHT22;5555;59.622;16.556;2023-02-22T16:39:25;-1.30;99.90
11005;DHT22;5555;59.622;16.556;2023-02-22T16:41:53;-1.30;99.90
11005;DHT22;5555;59.622;16.556;2023-02-22T16:44:19;-1.30;99.90
11005;DHT22;5555;59.622;16.556;2023-02-22T16:46:45;-1.30;99.90
11005;DHT22;5555;59.622;16.556;2023-02-22T16:49:11;-1.30;99.90
11005;DHT22;5555;59.622;16.556;2023-02-22T16:51:48;-1.40;99.90
11005;DHT22;5555;59.622;16.556;2023-02-22T16:54:24;-1.40;99.90
11005;DHT22;5555;59.622;16.556;2023-02-22T16:56:51;-1.40;99.90
11005;DHT22;5555;59.622;16.556;2023-02-22T16:59:17;-1.40;99.90
11005;DHT22;5555;59.622;16.556;2023-02-22T17:01:43;-1.40;99.90
11005;DHT22;5555;59.622;16.556;2023-02-22T17:04:14;-1.40;99.90
11005;DHT22;5555;59.622;16.556;2023-02-22T17:06:40;-1.40;99.90
11005;DHT22;5555;59.622;16.556;2023-02-22T17:09:06;-1.30;99.90
11005;DHT22;5555;59.622;16.556;2023-02-22T17:11:32;-1.40;99.90
11005;DHT22;5555;59.622;16.556;2023-02-22T17:13:59;-1.30;99.90
11005;DHT22;5555;59.622;16.556;2023-02-22T17:16:25;-1.40;99.90
11005;DHT22;5555;59.622;16.556;2023-02-22T17:18:50;-1.30;99.90
11005;DHT22;5555;59.622;16.556;2023-02-22T17:21:16;-1.40;99.90
11005;DHT22;5555;59.622;16.556;2023-02-22T17:23:42;-1.40;99.90
11005;DHT22;5555;59.622;16.556;2023-02-22T17:26:11;-1.30;99.90
11005;DHT22;5555;59.622;16.556;2023-02-22T17:28:38;-1.30;99.90
11005;DHT22;5555;59.622;16.556;2023-02-22T17:31:04;-1.30;99.90
11005;DHT22;5555;59.622;16.556;2023-02-22T17:33:33;-1.30;99.90
11005;DHT22;5555;59.622;16.556;2023-02-22T17:36:00;-1.30;99.90
11005;DHT22;5555;59.622;16.556;2023-02-22T17:38:29;-1.20;99.90
11005;DHT22;5555;59.622;16.556;2023-02-22T17:40:57;-1.20;99.90
11005;DHT22;5555;59.622;16.556;2023-02-22T17:43:24;-1.20;99.90
11005;DHT22;5555;59.622;16.556;2023-02-22T17:45:50;-1.20;99.90
11005;DHT22;5555;59.622;16.556;2023-02-22T17:48:17;-1.20;99.90